Time;durP1;ratioP1;P1;durP2;ratioP2;P2;SDS_P1;SDS_P2;PMS_P1;PMS_P2;Temp;Humidity;BMP_temperature;BMP_pressure;BME280_temperature;BME280_humidity;BME280_pressure;Samples;Min_cycle;Max_cycle;Signal;HPM_P1;HPM_P2
2024/04/07 00:00:26;;;;;;;2.65;2.45;;;15.30;99.90;;;;;;5031365;28;20233;-70
2024/04/07 00:02:53;;;;;;;3.40;2.42;;;15.20;99.90;;;;;;5025471;28;20222;-70
2024/04/07 00:05:20;;;;;;;2.78;2.47;;;15.20;99.90;;;;;;5023687;28;20316;-70
2024/04/07 00:07:47;;;;;;;2.20;2.00;;;15.10;99.90;;;;;;5034504;28;20222;-70
2024/04/07 00:10:13;;;;;;;2.58;2.38;;;15.10;99.90;;;;;;5036549;28;20306;-71
2024/04/07 00:12:41;;;;;;;2.80;2.25;;;15.10;99.90;;;;;;5017747;28;20219;-70
2024/04/07 00:15:09;;;;;;;2.33;2.10;;;15.10;99.90;;;;;;5019427;28;20196;-70
2024/04/07 00:17:36;;;;;;;2.90;2.65;;;15.10;99.90;;;;;;5021493;28;20273;-70
2024/04/07 00:20:02;;;;;;;2.30;2.10;;;15.10;99.90;;;;;;5021059;28;20314;-70
2024/04/07 00:22:29;;;;;;;4.10;2.90;;;15.10;99.90;;;;;;5018050;28;20310;-71
2024/04/07 00:24:56;;;;;;;2.80;2.60;;;15.00;99.90;;;;;;5021622;28;20346;-71
2024/04/07 00:27:23;;;;;;;2.97;2.70;;;15.00;99.90;;;;;;5020556;28;20226;-70
2024/04/07 00:29:50;;;;;;;3.15;2.80;;;14.90;99.90;;;;;;5021470;28;20283;-71
2024/04/07 00:32:18;;;;;;;2.00;1.90;;;14.90;99.90;;;;;;5019859;28;20216;-70
2024/04/07 00:34:47;;;;;;;2.60;2.40;;;14.90;99.90;;;;;;5036550;28;20219;-71
2024/04/07 00:37:15;;;;;;;3.08;2.78;;;14.90;99.90;;;;;;5037505;28;20301;-70
2024/04/07 00:39:41;;;;;;;2.40;2.20;;;14.90;99.90;;;;;;5037954;28;20219;-72
2024/04/07 00:42:08;;;;;;;2.40;2.20;;;14.90;99.90;;;;;;5038051;28;20851;-71
2024/04/07 00:44:35;;;;;;;2.38;2.17;;;14.90;99.90;;;;;;5038952;28;20298;-70
2024/04/07 00:47:02;;;;;;;3.45;2.60;;;14.80;99.90;;;;;;5036324;28;20711;-70
2024/04/07 00:49:30;;;;;;;2.83;2.63;;;14.80;99.90;;;;;;5039869;28;20586;-71
2024/04/07 00:51:57;;;;;;;2.70;2.42;;;14.80;99.90;;;;;;5024132;28;20375;-70
2024/04/07 00:54:25;;;;;;;3.58;2.47;;;14.80;99.90;;;;;;5025973;28;20269;-71
2024/04/07 00:56:52;;;;;;;3.55;2.70;;;14.70;99.90;;;;;;5038895;28;20225;-70
2024/04/07 00:59:18;;;;;;;2.80;2.60;;;14.70;99.90;;;;;;5041975;28;20218;-70
2024/04/07 01:01:46;;;;;;;3.67;2.40;;;14.70;99.90;;;;;;5041804;28;20764;-70
2024/04/07 01:04:12;;;;;;;3.05;2.83;;;14.70;99.90;;;;;;5039992;28;20317;-70
2024/04/07 01:06:41;;;;;;;3.40;3.10;;;14.70;99.90;;;;;;5037926;28;20241;-70
2024/04/07 01:09:07;;;;;;;3.92;2.70;;;14.60;99.90;;;;;;5042279;28;20199;-70
2024/04/07 01:11:34;;;;;;;3.63;2.70;;;14.60;99.90;;;;;;5041087;28;20306;-70
2024/04/07 01:14:01;;;;;;;2.50;2.30;;;14.60;99.90;;;;;;5041955;28;20231;-71
2024/04/07 01:16:28;;;;;;;2.60;2.40;;;14.60;99.90;;;;;;5042767;28;20306;-71
2024/04/07 01:18:54;;;;;;;2.83;2.30;;;14.60;99.90;;;;;;5041392;28;20295;-70
2024/04/07 01:21:21;;;;;;;2.40;2.20;;;14.60;99.90;;;;;;5040259;28;20458;-71
2024/04/07 01:23:49;;;;;;;1.90;1.80;;;14.60;99.90;;;;;;5041388;28;20303;-71
2024/04/07 01:26:16;;;;;;;2.97;2.55;;;14.60;99.90;;;;;;5041770;28;20219;-70
2024/04/07 01:28:41;;;;;;;2.92;2.58;;;14.60;99.90;;;;;;5044325;28;20310;-71
2024/04/07 01:31:09;;;;;;;2.60;2.40;;;14.60;99.90;;;;;;5039263;28;20301;-72
2024/04/07 01:33:34;;;;;;;2.88;2.60;;;14.60;99.90;;;;;;5044156;28;20309;-71
2024/04/07 01:36:02;;;;;;;2.97;2.78;;;14.50;99.90;;;;;;5039292;28;20317;-72
2024/04/07 01:38:29;;;;;;;3.50;2.90;;;14.50;99.90;;;;;;5041575;28;20213;-70
2024/04/07 01:40:57;;;;;;;2.90;2.67;;;14.50;99.90;;;;;;5040865;28;20304;-69
2024/04/07 01:43:23;;;;;;;4.03;2.90;;;14.50;99.90;;;;;;5040342;28;20314;-70
2024/04/07 01:45:50;;;;;;;2.97;2.70;;;14.50;99.90;;;;;;5040714;28;20229;-69
2024/04/07 01:48:16;;;;;;;3.53;2.55;;;14.50;99.90;;;;;;5041577;28;20306;-70
2024/04/07 01:50:43;;;;;;;4.07;2.70;;;14.40;99.90;;;;;;5040276;28;20219;-69
2024/04/07 01:53:09;;;;;;;3.15;2.85;;;14.40;99.90;;;;;;5040558;28;20215;-70
2024/04/07 01:55:36;;;;;;;3.45;2.65;;;14.40;99.90;;;;;;5038561;28;20747;-69
2024/04/07 01:58:03;;;;;;;4.05;2.95;;;14.40;99.90;;;;;;5042601;28;20223;-69
2024/04/07 02:00:30;;;;;;;3.80;2.85;;;14.40;99.90;;;;;;5037784;28;20231;-70
2024/04/07 02:02:56;;;;;;;3.35;2.67;;;14.40;99.90;;;;;;5040282;28;20302;-70
2024/04/07 02:05:23;;;;;;;2.65;2.42;;;14.30;99.90;;;;;;5039955;28;20668;-69
2024/04/07 02:07:49;;;;;;;3.83;3.00;;;14.30;99.90;;;;;;5041051;28;20231;-70
2024/04/07 02:10:16;;;;;;;4.00;2.92;;;14.30;99.90;;;;;;5037797;28;20238;-69
2024/04/07 02:12:42;;;;;;;2.53;2.33;;;14.20;99.90;;;;;;5038338;28;20407;-70
2024/04/07 02:15:11;;;;;;;2.83;2.53;;;14.20;99.90;;;;;;5038660;28;21710;-70
2024/04/07 02:17:37;;;;;;;3.08;2.88;;;14.20;99.90;;;;;;5041022;28;20223;-70
2024/04/07 02:20:08;;;;;;;3.10;2.60;;;14.20;99.90;;;;;;5040076;28;20233;-70
2024/04/07 02:22:34;;;;;;;3.38;3.08;;;14.20;99.90;;;;;;5041123;28;20700;-70
2024/04/07 02:25:01;;;;;;;3.15;2.85;;;14.20;99.90;;;;;;5038069;28;20218;-71
2024/04/07 02:27:27;;;;;;;2.95;2.75;;;14.10;99.90;;;;;;5043100;28;20317;-70
2024/04/07 02:29:54;;;;;;;2.67;2.47;;;14.10;99.90;;;;;;5040405;28;20785;-70
2024/04/07 02:32:21;;;;;;;3.08;2.88;;;14.10;99.90;;;;;;5041702;28;20322;-71
2024/04/07 02:34:48;;;;;;;2.60;2.40;;;14.10;99.90;;;;;;5043780;28;20318;-70
2024/04/07 02:37:14;;;;;;;2.88;2.53;;;14.10;99.90;;;;;;5037311;28;20223;-70
2024/04/07 02:39:41;;;;;;;3.05;2.70;;;14.10;99.90;;;;;;5043424;28;20443;-70
2024/04/07 02:42:07;;;;;;;2.78;2.42;;;14.00;99.90;;;;;;5043030;28;20309;-70
2024/04/07 02:50:05;;;;;;;2.50;2.30;;;13.80;99.90;;;;;;5034561;28;20264;-70
2024/04/07 02:52:32;;;;;;;3.92;2.60;;;13.90;99.90;;;;;;5041018;28;20223;-70
2024/04/07 02:54:59;;;;;;;2.85;2.55;;;13.90;99.90;;;;;;5037383;28;20215;-70
2024/04/07 02:57:25;;;;;;;2.50;2.22;;;13.90;99.90;;;;;;5038704;28;20310;-70
2024/04/07 02:59:52;;;;;;;2.45;2.30;;;13.90;99.90;;;;;;5039775;28;20233;-70
2024/04/07 03:02:20;;;;;;;2.50;2.30;;;13.90;99.90;;;;;;5042723;28;20310;-70
2024/04/07 03:04:48;;;;;;;2.63;2.35;;;13.90;99.90;;;;;;5040428;28;20242;-70
2024/04/07 03:07:16;;;;;;;2.30;1.95;;;13.90;99.90;;;;;;5041636;28;20227;-70
2024/04/07 03:09:43;;;;;;;2.20;2.00;;;14.00;99.90;;;;;;5047637;28;20253;-70
2024/04/07 03:12:09;;;;;;;2.25;2.15;;;13.90;99.90;;;;;;5033971;28;20226;-71
2024/04/07 03:14:36;;;;;;;2.40;2.20;;;13.90;99.90;;;;;;5041013;28;20195;-70
2024/04/07 03:17:02;;;;;;;2.38;2.17;;;13.90;99.90;;;;;;5033758;28;20317;-70
2024/04/07 03:19:29;;;;;;;2.25;2.05;;;13.90;99.90;;;;;;5040070;28;20216;-70
2024/04/07 03:21:55;;;;;;;3.08;2.25;;;13.90;99.90;;;;;;5038991;28;20231;-71
2024/04/07 03:24:23;;;;;;;2.13;2.03;;;13.90;99.90;;;;;;5040091;28;20211;-71
2024/04/07 03:26:49;;;;;;;2.67;2.08;;;13.80;99.90;;;;;;5040772;28;20310;-70
2024/04/07 03:29:18;;;;;;;2.80;2.58;;;13.80;99.90;;;;;;5040538;28;20303;-70
2024/04/07 03:31:45;;;;;;;2.60;2.40;;;13.80;99.90;;;;;;5037312;28;20723;-70
2024/04/07 03:34:11;;;;;;;2.83;2.47;;;13.70;99.90;;;;;;5039601;28;20229;-70
2024/04/07 03:36:37;;;;;;;2.33;2.13;;;13.70;99.90;;;;;;5039327;28;20322;-70
2024/04/07 03:39:05;;;;;;;3.72;2.17;;;13.70;99.90;;;;;;5049458;28;20262;-70
2024/04/07 03:41:35;;;;;;;2.50;2.30;;;13.70;99.90;;;;;;5047929;28;20251;-70
2024/04/07 03:44:02;;;;;;;2.38;2.17;;;13.70;99.90;;;;;;5041185;28;20808;-70
2024/04/07 03:46:29;;;;;;;2.38;2.17;;;13.70;99.90;;;;;;5029891;28;20231;-70
2024/04/07 03:48:56;;;;;;;2.55;2.05;;;13.70;99.90;;;;;;5020211;28;20318;-70
2024/04/07 03:51:22;;;;;;;2.55;2.20;;;13.70;99.90;;;;;;5022778;28;20226;-70
2024/04/07 03:53:49;;;;;;;2.15;2.00;;;13.70;99.90;;;;;;5023922;28;20249;-70
2024/04/07 03:56:15;;;;;;;3.13;2.30;;;13.70;99.90;;;;;;5019373;28;20223;-70
2024/04/07 03:58:44;;;;;;;2.17;1.98;;;13.70;99.90;;;;;;5021442;28;20579;-70
2024/04/07 04:01:10;;;;;;;2.15;1.95;;;13.60;99.90;;;;;;5020326;28;20234;-70
2024/04/07 04:03:37;;;;;;;2.15;1.95;;;13.60;99.90;;;;;;5040337;28;20473;-70
2024/04/07 04:06:04;;;;;;;1.98;1.88;;;13.60;99.90;;;;;;5034831;28;20301;-70
2024/04/07 04:08:32;;;;;;;2.08;1.88;;;13.60;99.90;;;;;;5044635;28;20199;-70
2024/04/07 04:11:01;;;;;;;2.70;2.50;;;13.60;99.90;;;;;;5031012;28;20229;-70
2024/04/07 04:13:28;;;;;;;2.28;2.10;;;13.50;99.90;;;;;;5016087;28;20238;-70
2024/04/07 04:15:55;;;;;;;2.15;2.00;;;13.50;99.90;;;;;;5015818;28;20234;-70
2024/04/07 04:18:22;;;;;;;2.30;2.10;;;13.50;99.90;;;;;;5035879;28;20230;-70
2024/04/07 04:20:48;;;;;;;2.35;2.15;;;13.50;99.90;;;;;;5033899;28;20796;-70
2024/04/07 04:23:15;;;;;;;2.28;2.08;;;13.40;99.90;;;;;;5020795;28;20295;-71
2024/04/07 04:25:49;;;;;;;2.53;2.33;;;13.40;99.90;;;;;;5030883;28;20245;-70
2024/04/07 04:28:17;;;;;;;2.50;2.30;;;13.40;99.90;;;;;;5020448;28;20221;-70
2024/04/07 04:30:51;;;;;;;2.55;2.10;;;13.40;99.90;;;;;;5026552;28;20297;-70
2024/04/07 04:33:21;;;;;;;2.13;1.95;;;13.40;99.90;;;;;;5040964;28;20699;-70
2024/04/07 04:35:47;;;;;;;2.72;2.53;;;13.30;99.90;;;;;;5037565;28;20583;-70
2024/04/07 04:38:14;;;;;;;2.30;2.20;;;13.30;99.90;;;;;;5041607;28;20219;-70
2024/04/07 04:40:40;;;;;;;1.95;1.85;;;13.30;99.90;;;;;;5047360;28;20862;-70
2024/04/07 04:43:07;;;;;;;2.63;1.90;;;13.30;99.90;;;;;;5040724;28;20306;-70
2024/04/07 04:45:33;;;;;;;2.50;2.10;;;13.30;99.90;;;;;;5039326;28;20218;-70
2024/04/07 04:48:00;;;;;;;2.50;2.30;;;13.20;99.90;;;;;;5037671;28;20746;-70
2024/04/07 04:50:28;;;;;;;2.50;2.28;;;13.20;99.90;;;;;;5035459;28;20313;-70
2024/04/07 04:52:55;;;;;;;2.35;2.15;;;13.20;99.90;;;;;;5038310;28;20238;-70
2024/04/07 04:55:20;;;;;;;2.40;2.20;;;13.10;99.90;;;;;;5039542;28;21905;-70
2024/04/07 04:57:48;;;;;;;2.28;2.13;;;13.10;99.90;;;;;;5036930;28;20323;-70
2024/04/07 05:00:14;;;;;;;2.50;2.30;;;13.00;99.90;;;;;;5037015;28;20249;-71
2024/04/07 05:02:42;;;;;;;2.10;2.00;;;13.10;99.90;;;;;;5040487;28;20226;-70
2024/04/07 05:05:09;;;;;;;2.25;1.85;;;13.10;99.90;;;;;;5039284;28;20305;-70
2024/04/07 05:07:39;;;;;;;2.63;2.40;;;13.10;99.90;;;;;;5040019;28;20241;-70
2024/04/07 05:10:06;;;;;;;2.40;2.20;;;13.10;99.90;;;;;;5039031;28;20243;-70
2024/04/07 05:12:33;;;;;;;1.98;1.88;;;13.20;99.90;;;;;;5039778;28;20224;-70
2024/04/07 05:14:59;;;;;;;2.17;1.98;;;13.20;99.90;;;;;;5036245;28;20303;-70
2024/04/07 05:17:25;;;;;;;3.22;2.47;;;13.30;99.90;;;;;;5039170;28;20309;-70
2024/04/07 05:19:51;;;;;;;2.03;1.92;;;13.30;99.90;;;;;;5040559;28;20211;-70
2024/04/07 05:22:18;;;;;;;2.75;2.55;;;13.40;99.90;;;;;;5038875;28;20313;-70
2024/04/07 05:24:45;;;;;;;3.00;2.40;;;13.40;99.90;;;;;;5040329;28;20222;-70
2024/04/07 05:27:12;;;;;;;2.42;2.22;;;13.40;99.90;;;;;;5036553;28;20237;-70
2024/04/07 05:29:38;;;;;;;2.30;2.10;;;13.40;99.90;;;;;;5039689;28;20863;-70
2024/04/07 05:32:07;;;;;;;2.92;2.40;;;13.50;99.90;;;;;;5038200;28;20309;-70
2024/04/07 05:34:33;;;;;;;2.50;2.30;;;13.50;99.90;;;;;;5040290;28;20298;-70
2024/04/07 05:37:03;;;;;;;2.33;2.22;;;13.50;99.90;;;;;;5040822;28;20280;-70
2024/04/07 05:39:28;;;;;;;2.33;2.13;;;13.60;99.90;;;;;;5041073;28;20353;-70
2024/04/07 05:41:57;;;;;;;2.50;2.30;;;13.60;99.90;;;;;;5039239;28;20947;-71
2024/04/07 05:44:23;;;;;;;2.50;2.30;;;13.70;99.90;;;;;;5042725;28;20286;-69
2024/04/07 05:46:52;;;;;;;2.20;2.10;;;13.80;99.90;;;;;;5041993;28;20313;-69
2024/04/07 05:49:18;;;;;;;2.30;2.10;;;13.90;99.90;;;;;;5041479;28;20219;-69
2024/04/07 05:51:45;;;;;;;2.65;2.15;;;13.90;99.90;;;;;;5040097;28;20222;-69
2024/04/07 05:54:11;;;;;;;2.05;1.90;;;14.00;99.90;;;;;;5043166;28;20318;-70
2024/04/07 05:56:38;;;;;;;4.20;2.10;;;14.00;99.90;;;;;;5038714;28;20760;-70
2024/04/07 05:59:05;;;;;;;2.00;1.90;;;14.10;99.90;;;;;;5041411;28;20964;-70
2024/04/07 06:01:32;;;;;;;2.45;2.28;;;14.20;99.90;;;;;;5042230;28;20223;-69
2024/04/07 06:03:58;;;;;;;2.00;1.80;;;14.20;99.90;;;;;;5042807;28;20298;-70
2024/04/07 06:06:25;;;;;;;2.50;2.30;;;14.20;99.90;;;;;;5042031;28;20225;-70
2024/04/07 06:08:51;;;;;;;1.90;1.80;;;14.20;99.90;;;;;;5040802;28;20206;-71
2024/04/07 06:11:18;;;;;;;1.83;1.73;;;14.20;99.90;;;;;;5043725;28;20206;-70
2024/04/07 06:13:44;;;;;;;3.70;2.38;;;14.30;99.90;;;;;;5041701;28;20306;-71
2024/04/07 06:16:12;;;;;;;1.98;1.88;;;14.30;99.90;;;;;;5040172;28;20305;-70
2024/04/07 06:18:38;;;;;;;2.80;2.28;;;14.50;99.90;;;;;;5035008;28;20215;-70
2024/04/07 06:21:10;;;;;;;3.10;2.33;;;14.60;99.90;;;;;;5039333;28;20671;-70
2024/04/07 06:23:36;;;;;;;2.50;2.30;;;14.60;99.90;;;;;;5042162;28;20194;-70
2024/04/07 06:26:03;;;;;;;2.50;2.30;;;14.70;99.90;;;;;;5040276;28;20223;-70
2024/04/07 06:28:29;;;;;;;2.50;2.30;;;14.80;99.90;;;;;;5041544;28;20734;-70
2024/04/07 06:30:56;;;;;;;2.42;1.80;;;15.00;99.90;;;;;;5043273;28;20295;-70
2024/04/07 06:33:26;;;;;;;2.10;2.00;;;15.20;99.90;;;;;;5036778;28;20325;-70
2024/04/07 06:35:53;;;;;;;1.90;1.80;;;15.50;99.90;;;;;;5041737;28;20241;-71
2024/04/07 06:38:19;;;;;;;2.22;2.10;;;15.80;99.90;;;;;;5041482;28;20229;-71
2024/04/07 06:40:46;;;;;;;2.78;2.40;;;16.00;99.90;;;;;;5042711;28;20222;-71
2024/04/07 06:43:12;;;;;;;2.75;2.53;;;16.10;99.90;;;;;;5041859;28;20215;-73
2024/04/07 06:45:39;;;;;;;2.53;2.33;;;16.00;99.90;;;;;;5037496;28;20221;-70
2024/04/07 06:48:05;;;;;;;5.95;2.33;;;15.90;99.90;;;;;;5037258;28;20325;-70
2024/04/07 06:50:34;;;;;;;2.20;2.00;;;15.90;99.90;;;;;;5038494;28;20214;-71
2024/04/07 06:53:00;;;;;;;1.95;1.85;;;15.90;99.90;;;;;;5040727;28;20318;-70
2024/04/07 06:55:27;;;;;;;2.30;2.10;;;16.10;99.90;;;;;;5041114;28;20314;-71
2024/04/07 06:57:54;;;;;;;2.80;1.85;;;16.30;99.90;;;;;;5039632;28;20265;-71
2024/04/07 07:00:21;;;;;;;2.58;2.30;;;16.50;99.90;;;;;;5036965;28;20270;-70
2024/04/07 07:02:47;;;;;;;3.03;2.17;;;16.70;99.90;;;;;;5040954;28;20294;-70
2024/04/07 07:05:14;;;;;;;2.30;2.10;;;16.80;99.90;;;;;;5040423;28;20305;-71
2024/04/07 07:07:41;;;;;;;2.00;1.83;;;17.00;99.90;;;;;;5041274;28;20223;-71
2024/04/07 07:10:09;;;;;;;2.45;2.08;;;17.10;99.90;;;;;;5042898;28;20226;-71
2024/04/07 07:12:35;;;;;;;2.75;2.28;;;17.20;99.90;;;;;;5037770;28;20231;-70
2024/04/07 07:15:03;;;;;;;2.50;2.30;;;17.40;99.90;;;;;;5041650;28;20230;-71
2024/04/07 07:17:29;;;;;;;2.50;2.30;;;17.70;99.90;;;;;;5044503;28;20276;-70
2024/04/07 07:19:56;;;;;;;2.40;2.20;;;17.90;99.90;;;;;;5039860;28;20250;-70
2024/04/07 07:22:22;;;;;;;3.28;2.25;;;18.20;99.90;;;;;;5041926;28;20313;-69
2024/04/07 07:24:51;;;;;;;2.35;2.10;;;18.50;99.90;;;;;;5041274;28;20309;-70
2024/04/07 07:27:17;;;;;;;3.05;2.58;;;18.70;99.90;;;;;;5037309;28;20222;-70
2024/04/07 07:29:43;;;;;;;3.13;2.58;;;18.90;99.90;;;;;;5042042;28;20209;-70
2024/04/07 07:32:11;;;;;;;2.88;2.28;;;19.00;99.90;;;;;;5038673;28;20227;-70
2024/04/07 07:34:38;;;;;;;2.03;1.92;;;19.20;99.90;;;;;;5040281;28;20230;-70
2024/04/07 07:37:04;;;;;;;2.90;2.30;;;19.10;99.90;;;;;;5037300;28;20318;-71
2024/04/07 07:39:31;;;;;;;2.92;1.98;;;19.00;99.90;;;;;;5042492;28;20309;-71
2024/04/07 07:41:58;;;;;;;2.20;2.00;;;18.90;99.90;;;;;;5033801;28;20322;-71
2024/04/07 07:44:25;;;;;;;3.28;2.30;;;18.80;99.90;;;;;;5040822;28;20221;-71
2024/04/07 07:46:52;;;;;;;2.50;2.10;;;18.80;99.90;;;;;;5039396;28;20301;-71
2024/04/07 07:49:20;;;;;;;2.13;1.95;;;18.40;99.90;;;;;;5040104;28;20210;-71
2024/04/07 07:51:46;;;;;;;3.42;2.15;;;18.20;99.90;;;;;;5039581;28;20313;-72
2024/04/07 07:54:13;;;;;;;3.03;2.20;;;18.10;99.90;;;;;;5040740;28;20301;-73
2024/04/07 07:56:39;;;;;;;2.60;2.40;;;18.10;99.90;;;;;;5037570;28;20321;-73
2024/04/07 07:59:07;;;;;;;2.92;2.38;;;18.00;99.90;;;;;;5036197;28;20215;-72
2024/04/07 08:01:33;;;;;;;4.03;2.03;;;18.20;99.90;;;;;;5039971;28;20544;-72
2024/04/07 08:04:00;;;;;;;4.07;2.30;;;18.40;99.90;;;;;;5038522;28;20302;-72
2024/04/07 08:06:28;;;;;;;2.67;1.95;;;18.60;99.90;;;;;;5038411;28;20482;-72
2024/04/07 08:08:55;;;;;;;2.08;1.90;;;18.70;99.90;;;;;;5035650;28;20669;-72
2024/04/07 08:11:21;;;;;;;2.13;1.92;;;18.60;99.90;;;;;;5039742;28;20659;-72
2024/04/07 08:13:48;;;;;;;2.85;2.10;;;18.40;99.90;;;;;;5036818;28;20908;-72
2024/04/07 08:16:16;;;;;;;5.13;2.53;;;18.50;99.90;;;;;;5039060;28;20226;-72
2024/04/07 08:18:43;;;;;;;2.65;2.10;;;18.60;99.90;;;;;;5037701;28;20310;-72
2024/04/07 08:21:10;;;;;;;2.83;2.60;;;18.90;99.90;;;;;;5033231;28;20517;-72
2024/04/07 08:23:37;;;;;;;2.53;2.33;;;19.40;99.90;;;;;;5033622;28;20200;-73
2024/04/07 08:26:04;;;;;;;2.53;2.33;;;19.80;99.90;;;;;;5036481;28;20883;-74
2024/04/07 08:28:32;;;;;;;2.55;2.08;;;20.10;99.90;;;;;;5039108;28;20709;-72
2024/04/07 08:30:58;;;;;;;3.10;2.40;;;20.50;99.90;;;;;;5034846;28;20225;-72
2024/04/07 08:33:27;;;;;;;9.02;2.70;;;20.80;99.90;;;;;;5025351;28;20210;-72
2024/04/07 08:35:53;;;;;;;5.53;2.30;;;20.70;99.90;;;;;;5042049;28;20314;-72
2024/04/07 08:38:20;;;;;;;4.50;2.75;;;20.60;99.90;;;;;;5022575;28;20294;-72
2024/04/07 08:40:47;;;;;;;2.40;2.20;;;20.70;99.90;;;;;;5029036;28;20306;-72
2024/04/07 08:43:15;;;;;;;3.55;2.35;;;20.70;99.90;;;;;;5038949;28;20219;-72
2024/04/07 08:45:41;;;;;;;2.63;2.42;;;20.70;99.90;;;;;;5038651;28;21017;-72
2024/04/07 08:48:11;;;;;;;3.35;2.20;;;20.80;99.90;;;;;;5039010;28;20286;-72
2024/04/07 08:50:40;;;;;;;4.55;2.85;;;20.90;99.90;;;;;;5039163;28;20314;-72
2024/04/07 08:53:09;;;;;;;3.40;2.78;;;21.10;99.90;;;;;;5035979;28;20310;-72
2024/04/07 08:55:36;;;;;;;4.47;2.60;;;21.20;99.90;;;;;;5017564;28;20219;-72
2024/04/07 08:58:05;;;;;;;3.13;2.38;;;21.40;99.90;;;;;;5024595;28;20210;-72
2024/04/07 09:00:31;;;;;;;2.25;1.90;;;21.60;99.90;;;;;;5033218;28;20298;-73
2024/04/07 09:03:02;;;;;;;3.38;2.45;;;21.40;99.90;;;;;;5034084;28;20215;-72
2024/04/07 09:05:28;;;;;;;3.25;2.40;;;21.20;99.90;;;;;;5033310;28;20227;-72
2024/04/07 09:07:57;;;;;;;2.40;2.20;;;21.30;99.90;;;;;;5039652;28;20222;-72
2024/04/07 09:10:23;;;;;;;2.80;2.20;;;21.60;99.90;;;;;;5036933;28;20829;-72
2024/04/07 09:12:52;;;;;;;2.78;2.15;;;21.80;99.90;;;;;;5038977;28;20301;-72
2024/04/07 09:15:18;;;;;;;2.45;2.20;;;21.80;99.90;;;;;;5035547;28;20231;-72
2024/04/07 09:17:45;;;;;;;3.00;2.03;;;21.70;99.90;;;;;;5038114;28;20223;-72
2024/04/07 09:20:18;;;;;;;3.30;2.05;;;21.50;99.90;;;;;;5036776;28;20812;-72
2024/04/07 09:22:46;;;;;;;2.95;2.20;;;21.40;99.90;;;;;;5036942;28;20268;-72
2024/04/07 09:25:13;;;;;;;1.95;1.85;;;21.50;99.90;;;;;;5038753;28;20255;-73
2024/04/07 09:27:41;;;;;;;5.20;2.55;;;21.50;99.90;;;;;;5040862;28;20215;-73
2024/04/07 09:30:08;;;;;;;2.20;2.00;;;21.50;99.90;;;;;;5037834;28;20203;-73
2024/04/07 09:32:36;;;;;;;2.42;1.80;;;21.70;99.90;;;;;;5037101;28;20210;-72
2024/04/07 09:35:03;;;;;;;3.05;2.50;;;21.90;99.90;;;;;;5037521;28;20222;-73
2024/04/07 09:37:30;;;;;;;2.33;2.03;;;22.10;99.90;;;;;;5042072;28;20231;-73
2024/04/07 09:39:56;;;;;;;4.18;2.08;;;22.30;99.90;;;;;;5042212;28;20313;-72
2024/04/07 09:42:28;;;;;;;2.83;2.35;;;22.40;99.90;;;;;;5043137;28;20309;-73
2024/04/07 09:44:57;;;;;;;2.30;2.10;;;22.60;99.90;;;;;;5041997;28;20283;-73
2024/04/07 09:47:27;;;;;;;3.92;2.63;;;22.50;99.90;;;;;;5041899;28;20233;-73
2024/04/07 09:49:59;;;;;;;2.65;2.30;;;22.30;99.90;;;;;;5034621;28;20223;-72
2024/04/07 09:52:31;;;;;;;2.65;2.45;;;22.20;99.90;;;;;;5040681;28;20320;-73
2024/04/07 09:55:04;;;;;;;2.75;1.80;;;22.20;99.90;;;;;;5039208;28;20215;-73
2024/04/07 09:57:32;;;;;;;2.60;2.40;;;22.10;99.90;;;;;;5038089;28;20227;-73
2024/04/07 10:00:00;;;;;;;4.00;2.63;;;22.10;99.90;;;;;;5040924;28;20286;-73
2024/04/07 10:02:27;;;;;;;2.70;2.08;;;22.00;99.90;;;;;;5039678;28;20242;-71
2024/04/07 10:04:55;;;;;;;2.17;1.95;;;22.00;99.90;;;;;;5042275;28;20238;-73
2024/04/07 10:07:23;;;;;;;2.85;2.03;;;22.00;99.90;;;;;;5038584;28;20722;-73
2024/04/07 10:09:52;;;;;;;3.08;2.20;;;22.30;99.90;;;;;;5038743;28;20229;-73
2024/04/07 10:12:28;;;;;;;1.90;1.77;;;22.40;99.90;;;;;;5034769;28;20231;-73
2024/04/07 10:14:55;;;;;;;4.32;2.15;;;22.60;99.90;;;;;;5038128;28;20205;-72
2024/04/07 10:17:25;;;;;;;2.30;2.10;;;22.60;99.90;;;;;;5033346;28;20230;-73
2024/04/07 10:19:54;;;;;;;2.25;1.73;;;22.60;99.90;;;;;;5042173;28;20211;-73
2024/04/07 10:22:23;;;;;;;1.73;1.63;;;22.70;99.90;;;;;;5041228;28;20231;-73
2024/04/07 10:24:51;;;;;;;3.33;1.92;;;23.00;99.90;;;;;;5041636;28;20257;-72
2024/04/07 10:27:23;;;;;;;3.75;2.13;;;23.30;99.90;;;;;;5042350;28;20688;-72
2024/04/07 10:29:52;;;;;;;2.92;2.10;;;23.40;99.90;;;;;;5043450;28;20719;-73
2024/04/07 10:32:29;;;;;;;2.80;1.83;;;23.40;99.90;;;;;;5040943;28;20211;-73
2024/04/07 10:35:04;;;;;;;2.50;1.65;;;23.50;99.90;;;;;;5044447;28;20218;-72
2024/04/07 10:37:31;;;;;;;1.95;1.55;;;23.70;99.90;;;;;;5040067;28;20333;-72
2024/04/07 10:39:57;;;;;;;2.72;1.85;;;23.90;99.90;;;;;;5041132;28;20251;-73
2024/04/07 10:42:24;;;;;;;2.00;1.60;;;24.00;99.90;;;;;;5024167;28;20222;-74
2024/04/07 10:44:52;;;;;;;1.98;1.50;;;24.00;99.90;;;;;;5040344;28;20302;-73
2024/04/07 10:47:20;;;;;;;2.58;1.60;;;23.80;99.90;;;;;;5025069;28;20229;-72
2024/04/07 10:49:47;;;;;;;2.05;1.85;;;24.00;99.90;;;;;;5024080;28;20239;-73
2024/04/07 10:52:16;;;;;;;2.10;1.45;;;24.00;99.90;;;;;;5034149;28;20207;-72
2024/04/07 10:54:42;;;;;;;1.70;1.60;;;23.90;99.90;;;;;;5038991;28;20600;-72
2024/04/07 10:57:13;;;;;;;1.27;1.17;;;23.80;99.90;;;;;;5040816;28;20233;-72
2024/04/07 10:59:39;;;;;;;1.58;1.48;;;24.10;99.90;;;;;;5045218;28;20203;-72
2024/04/07 11:02:08;;;;;;;5.50;1.50;;;24.30;99.90;;;;;;5037097;28;20939;-72
2024/04/07 11:04:34;;;;;;;1.55;1.40;;;24.40;99.90;;;;;;5040160;28;20853;-72
2024/04/07 11:07:04;;;;;;;2.38;1.60;;;24.20;99.90;;;;;;5040258;28;20368;-73
2024/04/07 11:09:30;;;;;;;1.92;1.63;;;24.00;99.90;;;;;;5037999;28;20326;-73
2024/04/07 11:11:58;;;;;;;3.20;1.42;;;23.80;99.90;;;;;;5038868;28;20234;-73
2024/04/07 11:14:25;;;;;;;1.50;1.40;;;23.90;99.90;;;;;;5040804;28;20282;-72
2024/04/07 11:16:53;;;;;;;3.42;1.50;;;23.90;99.90;;;;;;5040108;28;20528;-73
2024/04/07 11:19:24;;;;;;;2.38;1.52;;;24.00;99.90;;;;;;5036712;28;20361;-73
2024/04/07 11:21:50;;;;;;;1.77;1.55;;;24.10;99.90;;;;;;5038162;28;20226;-73
2024/04/07 11:24:19;;;;;;;2.17;1.67;;;24.40;99.90;;;;;;5032234;28;20225;-73
2024/04/07 11:26:47;;;;;;;1.77;1.48;;;24.60;99.90;;;;;;5030829;28;20249;-73
2024/04/07 11:29:16;;;;;;;1.55;1.40;;;24.90;99.90;;;;;;5037812;28;20839;-73
2024/04/07 11:31:42;;;;;;;1.35;1.25;;;25.20;99.90;;;;;;5020754;28;20221;-72
2024/04/07 11:34:10;;;;;;;2.78;1.42;;;25.20;99.90;;;;;;5020395;28;20298;-73
2024/04/07 11:36:36;;;;;;;1.92;1.55;;;25.10;99.90;;;;;;5029178;28;20848;-73
2024/04/07 11:39:03;;;;;;;1.85;1.45;;;25.00;99.90;;;;;;5031541;28;20199;-73
2024/04/07 11:41:30;;;;;;;1.85;1.35;;;25.20;99.90;;;;;;5022170;28;20297;-73
2024/04/07 11:43:58;;;;;;;2.40;1.50;;;25.40;99.90;;;;;;5009056;28;20239;-73
2024/04/07 11:46:23;;;;;;;2.15;1.55;;;25.50;99.90;;;;;;5027676;28;20310;-73
2024/04/07 11:48:50;;;;;;;2.05;1.48;;;25.60;99.90;;;;;;5031714;28;20222;-73
2024/04/07 11:51:16;;;;;;;2.40;1.50;;;25.60;99.90;;;;;;5032063;28;20880;-74
2024/04/07 11:53:47;;;;;;;1.55;1.42;;;25.40;99.90;;;;;;5033787;28;20278;-73
2024/04/07 11:56:13;;;;;;;2.33;1.60;;;25.40;99.90;;;;;;5030237;28;20317;-74
2024/04/07 11:58:42;;;;;;;1.73;1.30;;;25.40;99.90;;;;;;5031546;28;21014;-73
2024/04/07 12:01:07;;;;;;;2.67;1.30;;;25.80;99.90;;;;;;5032355;28;20302;-73
2024/04/07 12:03:34;;;;;;;1.90;1.40;;;26.00;99.90;;;;;;5032516;28;20594;-74
2024/04/07 12:06:00;;;;;;;1.65;1.30;;;26.10;99.90;;;;;;5032232;28;20679;-73
2024/04/07 12:08:27;;;;;;;1.48;1.38;;;26.10;99.90;;;;;;5031673;28;20191;-73
2024/04/07 12:10:53;;;;;;;1.98;1.20;;;26.20;99.90;;;;;;5029795;28;20310;-73
2024/04/07 12:13:20;;;;;;;2.45;1.10;;;26.20;99.90;;;;;;5032201;28;20214;-74
2024/04/07 12:15:47;;;;;;;2.03;1.63;;;26.30;99.90;;;;;;5031652;28;20222;-73
2024/04/07 12:18:15;;;;;;;1.63;1.50;;;26.30;99.90;;;;;;5036760;28;22432;-72
2024/04/07 12:20:41;;;;;;;2.63;1.33;;;26.10;99.90;;;;;;5038095;28;20321;-73
2024/04/07 12:23:08;;;;;;;1.20;1.10;;;26.00;99.90;;;;;;5036188;28;21302;-73
2024/04/07 12:25:34;;;;;;;1.40;1.30;;;26.00;99.90;;;;;;5040026;28;20254;-72
2024/04/07 12:28:01;;;;;;;1.75;1.38;;;26.00;99.90;;;;;;5034948;28;20295;-73
2024/04/07 12:30:27;;;;;;;1.90;1.42;;;26.00;99.90;;;;;;5037630;28;20230;-73
2024/04/07 12:32:56;;;;;;;2.13;1.70;;;26.10;99.90;;;;;;5037663;28;20220;-74
2024/04/07 12:35:22;;;;;;;2.38;1.80;;;26.20;99.90;;;;;;5037628;28;20276;-73
2024/04/07 12:37:49;;;;;;;2.10;1.50;;;26.20;99.90;;;;;;5036919;28;20230;-74
2024/04/07 12:40:15;;;;;;;1.48;1.38;;;26.20;99.90;;;;;;5034886;28;20216;-73
2024/04/07 12:42:44;;;;;;;1.30;1.20;;;26.30;99.90;;;;;;5036979;28;20238;-73
2024/04/07 12:45:10;;;;;;;3.35;1.50;;;26.50;99.90;;;;;;5039046;28;20245;-73
2024/04/07 12:47:37;;;;;;;1.50;1.40;;;26.60;99.90;;;;;;5028069;28;20226;-73
2024/04/07 12:50:05;;;;;;;3.72;1.45;;;26.70;99.90;;;;;;5039923;28;20225;-73
2024/04/07 12:52:35;;;;;;;1.83;1.40;;;26.70;99.90;;;;;;5043182;28;20225;-74